• Join FlightAware (Why Join?)
  • Login
  • US Flag 
06:42AM EDT


 

Airport Tracker/Info


-or-


 

Live Flight TrackerFlight Track Log ✈ ASQ4252 ✈ 16-Jun-2013 ✈ KIAD - KMSY

Flight Track Log - Related Links

Times and Time Zones

All times are in EDT time to prevent confusion due to time zone crossing. See the ASQ4252 flight status page for this flight to view local times or setup timezone preferences in your user account.

Time Position Orientation Groundspeed Altitude Reporting Facility
EDT Latitude Longitude Course Direction KTS MPH feet Rate Location/Type
06:53PM 38.9333 -77.5167 235° Southwest 203 234 1,800  Level Potomac TRACON
06:54PM 38.8500 -77.5167 180° South 268 308 4,100 2,220 Climbing Potomac TRACON
06:55PM 38.7833 -77.5167 180° South 282 325 6,500 2,220 Climbing Potomac TRACON
06:56PM 38.5622 -77.6700 210° Southwest  Level FlightAware Approximate
06:56PM 38.7167 -77.5500 201° Southwest 281 323 8,400  Level Potomac TRACON
06:57PM 38.4884 -77.7508 230° Southwest  Level FlightAware Approximate
06:58PM 38.4256 -77.8553 234° Southwest  Level FlightAware Approximate
06:59PM 38.3734 -77.9657 235° Southwest  Level FlightAware Approximate
06:59PM 38.5636 -77.6839 214° Southwest 309 356 11,900  Level Washington Center
07:00PM 38.4914 -77.7614 220° Southwest 330 380 13,500 1,680 Climbing Washington Center
07:01PM 38.4375 -77.8606 235° Southwest 330 380 15,400 1,440 Climbing Washington Center
07:02PM 38.3875 -77.9597 237° Southwest 335 386 16,500 1,080 Climbing Washington Center
07:03PM 38.3314 -78.0667 236° Southwest 353 406 17,600 1,140 Climbing Washington Center
07:04PM 38.2769 -78.1706 236° Southwest 358 412 18,800 1,260 Climbing Washington Center
07:05PM 38.2247 -78.2719 237° Southwest 358 412 20,200 1,380 Climbing Washington Center
07:06PM 38.1681 -78.3756 235° Southwest 358 412 21,600 1,140 Climbing Washington Center
07:07PM 38.1178 -78.4764 238° Southwest 363 418 22,600 1,200 Climbing Washington Center
07:08PM 38.0775 -78.5883 245° Southwest 351 404 24,000 1,440 Climbing Washington Center
07:09PM 38.0389 -78.7081 248° West 346 398 25,500 1,140 Climbing Washington Center
07:10PM 38.0050 -78.8069 247° West 339 390 26,400 1,260 Climbing Washington Center
07:11PM 37.9644 -78.9236 246° West 334 384 28,100 1,380 Climbing Washington Center
07:12PM 37.9325 -79.0169 247° West 328 377 29,300 1,260 Climbing Washington Center
07:13PM 37.8917 -79.1283 245° Southwest 328 377 30,700 1,200 Climbing Washington Center
07:14PM 37.8450 -79.2236 238° Southwest 318 366 31,700 900 Climbing Washington Center
07:15PM 37.8028 -79.3081 238° Southwest 318 366 32,600 600 Climbing Washington Center
07:16PM 37.7494 -79.4158 238° Southwest 323 372 33,000 180 Climbing Washington Center
07:17PM 37.7047 -79.5081 239° Southwest 339 390 33,000 120 Level Washington Center
07:19PM 37.5908 -79.7328 237° Southwest 380 437 33,400 300 Climbing Washington Center
07:20PM 37.5347 -79.8425 237° Southwest 385 443 33,900 480 Climbing Washington Center
07:23PM 37.3517 -80.2039 238° Southwest 383 441 35,400 480 Climbing Atlanta Center
07:24PM 37.2925 -80.3136 236° Southwest 383 441 35,900 300 Climbing Atlanta Center
07:25PM 37.2353 -80.4258 237° Southwest 383 441 36,000  Climbing Atlanta Center
07:26PM 37.1761 -80.5431 238° Southwest 394 453 36,000  Level Atlanta Center
07:27PM 37.1150 -80.6631 237° Southwest 408 470 36,000  Level Atlanta Center
07:28PM 37.0556 -80.7775 237° Southwest 408 470 36,000  Level Atlanta Center
07:29PM 36.9961 -80.8969 238° Southwest 403 464 36,000  Level Atlanta Center
07:30PM 36.9386 -81.0133 238° Southwest 403 464 36,000  Level Atlanta Center
07:31PM 36.8767 -81.1300 236° Southwest 403 464 36,000  Level Atlanta Center
07:32PM 36.8169 -81.2514 238° Southwest 409 471 36,000  Level Atlanta Center
07:33PM 36.7569 -81.3650 237° Southwest 409 471 36,000  Level Atlanta Center
07:34PM 36.6969 -81.4833 238° Southwest 397 457 36,000  Level Atlanta Center
07:35PM 36.6347 -81.6017 237° Southwest 407 468 36,000  Level Atlanta Center
07:36PM 36.5722 -81.7175 236° Southwest 407 468 36,000  Level Atlanta Center
07:37PM 36.5181 -81.8222 237° Southwest 407 468 36,000  Level Atlanta Center
07:38PM 36.4494 -81.9558 237° Southwest 415 478 36,000  Level Atlanta Center
07:39PM 36.3928 -82.0631 237° Southwest 420 483 36,000  Level Atlanta Center
07:40PM 36.3300 -82.1781 236° Southwest 420 483 36,000  Level Atlanta Center
07:41PM 36.2669 -82.3006 237° Southwest 420 483 36,000  Level Atlanta Center
07:42PM 36.2039 -82.4178 236° Southwest 420 483 36,000  Level Atlanta Center
07:43PM 36.1408 -82.5347 236° Southwest 420 483 36,000  Level Atlanta Center
07:44PM 36.0797 -82.6539 238° Southwest 420 483 36,000  Level Atlanta Center
07:45PM 36.0164 -82.7731 237° Southwest 420 483 36,000  Level Atlanta Center
07:46PM 35.9508 -82.8922 236° Southwest 420 483 36,000  Level Atlanta Center
07:47PM 35.8892 -83.0083 237° Southwest 420 483 36,000  Level Atlanta Center
07:48PM 35.8256 -83.1269 237° Southwest 420 483 36,000  Level Atlanta Center
07:49PM 35.7636 -83.2453 237° Southwest 415 478 36,000  Level Atlanta Center
07:50PM 35.6997 -83.3636 236° Southwest 415 478 36,000  Level Atlanta Center
07:51PM 35.6336 -83.4817 235° Southwest 420 483 36,000  Level Atlanta Center
07:52PM 35.5694 -83.5997 236° Southwest 420 483 36,000  Level Atlanta Center
07:53PM 35.5008 -83.7250 236° Southwest 420 483 36,000  Level Atlanta Center
07:54PM 35.4344 -83.8425 235° Southwest 420 483 36,000  Level Atlanta Center
07:55PM 35.3697 -83.9625 237° Southwest 420 483 36,000  Level Atlanta Center
07:56PM 35.3053 -84.0769 235° Southwest 420 483 36,000  Level Atlanta Center
07:57PM 35.2403 -84.1939 236° Southwest 420 483 36,000  Level Atlanta Center
07:58PM 35.1733 -84.3106 235° Southwest 420 483 36,000  Level Atlanta Center
07:59PM 35.1083 -84.4272 236° Southwest 420 483 36,000  Level Atlanta Center
08:00PM 35.0433 -84.5411 235° Southwest 420 483 36,000  Level Atlanta Center
08:01PM 34.9511 -84.6317 219° Southwest 420 483 36,000  Level Atlanta Center
08:02PM 34.8506 -84.7069 212° Southwest 426 490 36,000  Level Atlanta Center
08:03PM 34.7500 -84.7844 212° Southwest 436 502 36,000  Level Atlanta Center
08:04PM 34.6514 -84.8644 214° Southwest 441 507 36,000  Level Atlanta Center
08:05PM 34.5547 -84.9417 213° Southwest 423 487 36,000  Level Atlanta Center
08:06PM 34.4561 -85.0161 212° Southwest 423 487 36,000  Level Atlanta Center
08:07PM 34.3553 -85.0956 213° Southwest 423 487 36,000  Level Atlanta Center
08:08PM 34.2544 -85.1722 212° Southwest 429 494 36,000  Level Atlanta Center
08:09PM 34.1514 -85.2536 213° Southwest 439 505 36,000  Level Atlanta Center
08:10PM 34.0506 -85.3350 214° Southwest 439 505 36,000  Level Atlanta Center
08:11PM 33.9514 -85.4236 217° Southwest 444 511 36,000  Level Atlanta Center
08:12PM 33.8689 -85.5250 226° Southwest 437 503 36,000  Level Atlanta Center
08:13PM 33.8108 -85.6489 241° Southwest 426 490 36,000  Level Atlanta Center
08:14PM 33.7467 -85.7700 238° Southwest 432 497 36,000  Level Atlanta Center
08:15PM 33.6822 -85.8861 236° Southwest 432 497 36,000  Level Atlanta Center
08:16PM 33.6178 -86.0044 237° Southwest 432 497 36,000  Level Atlanta Center
08:17PM 33.5553 -86.1253 238° Southwest 432 497 36,000  Level Atlanta Center
08:18PM 33.4947 -86.2483 239° Southwest 432 497 36,000  Level Atlanta Center
08:19PM 33.4444 -86.3739 244° Southwest 424 488 36,000  Level Atlanta Center
08:20PM 33.3611 -86.4786 226° Southwest 429 494 36,000  Level Atlanta Center
08:21PM 33.3067 -86.5792 237° Southwest 434 499 36,000  Level Atlanta Center
08:22PM 33.2372 -86.7161 239° Southwest 450 518 36,000  Level Atlanta Center
08:23PM 33.1717 -86.8406 238° Southwest 456 525 36,000  Level Atlanta Center
08:24PM 33.1019 -86.9650 236° Southwest 450 518 36,000  Level Atlanta Center
08:25PM 33.0322 -87.0839 235° Southwest 444 511 36,000  Level Atlanta Center
08:26PM 32.9667 -87.2081 238° Southwest 444 511 36,000  Level Atlanta Center
08:27PM 32.9008 -87.3269 237° Southwest 450 518 36,000  Level Atlanta Center
08:28PM 32.8350 -87.4481 237° Southwest 450 518 36,000  Level Atlanta Center
08:30PM 32.6797 -87.7336 237° Southwest 449 517 36,000  Level Memphis Center
08:31PM 32.6111 -87.8542 236° Southwest 454 522 36,000  Level Memphis Center
08:32PM 32.5406 -87.9719 235° Southwest 449 517 36,000  Level Memphis Center
08:33PM 32.4758 -88.0894 237° Southwest 444 511 36,000  Level Memphis Center
08:34PM 32.4069 -88.2142 237° Southwest 449 517 36,000  Level Memphis Center
08:35PM 32.3403 -88.3361 237° Southwest 449 517 36,000  Level Memphis Center
08:36PM 32.2750 -88.4433 234° Southwest 449 517 36,000  Level Memphis Center
08:37PM 32.2019 -88.5700 236° Southwest 440 506 36,000  Level Memphis Center
08:38PM 32.1325 -88.6917 236° Southwest 440 506 36,000  Level Memphis Center
08:39PM 32.0631 -88.8106 235° Southwest 445 512 36,000  Level Memphis Center
08:40PM 31.9956 -88.9292 236° Southwest 450 518 36,000 -60 Level Memphis Center
08:41PM 31.9281 -89.0453 236° Southwest 456 525 35,900 -1,080 Descending Memphis Center
08:42PM 31.8631 -89.1586 236° Southwest 439 505 34,000 -2,220 Descending Houston Center
08:43PM 31.7911 -89.2789 235° Southwest 449 517 31,700 -2,280 Descending Houston Center
08:44PM 31.7217 -89.3983 236° Southwest 446 513 29,400 -1,860 Descending Houston Center
08:45PM 31.6444 -89.5119 231° Southwest 446 513 28,000 -1,140 Descending Houston Center
08:46PM 31.5306 -89.6003 213° Southwest 444 511 27,100 -1,140 Descending Houston Center
08:47PM 31.4142 -89.6617 204° Southwest 457 526 25,700 -1,440 Descending Houston Center
08:48PM 31.2975 -89.7122 200° South 451 519 24,200 -1,500 Descending Houston Center
08:49PM 31.1844 -89.7642 201° Southwest 441 507 22,700 -1,440 Descending Houston Center
08:50PM 31.0736 -89.8128 201° Southwest 431 496 21,300 -1,320 Descending Houston Center
08:51PM 30.9683 -89.8722 206° Southwest 425 489 20,000 -1,380 Descending Houston Center
08:52PM 30.8742 -89.9433 213° Southwest 408 470 18,500 -1,800 Descending Houston Center
08:53PM 30.8081 -89.9953 214° Southwest 402 463 17,300 -2,520 Descending Houston Center
08:53PM 30.7703 -90.0311 219° Southwest 390 449 15,900 -2,220 Descending Houston Center
08:54PM 30.6833 -90.0850 208° Southwest 357 411 14,000 -1,980 Descending Houston Center
08:55PM 30.5900 -90.1083 192° South 340 391 12,000 -1,920 Descending Houston Center
08:56PM 30.4944 -90.1269 190° South 320 368 10,200 -1,860 Descending Houston Center
08:57PM 30.4136 -90.1422 189° South 286 329 8,300 -1,740 Descending Houston Center
08:58PM 30.3367 -90.1575 190° South 283 326 6,700 -1,500 Descending Houston Center
08:59PM 30.2619 -90.1725 190° South 273 314 5,300 -1,440 Descending Houston Center
09:00PM 30.1872 -90.1878 190° South 272 313 3,900 -1,440 Descending Houston Center
09:01PM 30.1147 -90.2100 195° South 266 306 2,400 -1,500 Descending Houston Center